Alouetteii — V7ON8 — position and weather

sailwx.info

Track history (hours):
 
Tides and Currents Weather Stations Pressure Air Temp Water Temp Dewpoint Dewpoint Depression Visibility Wind Speed Wind Dir Waves Ship Positions

Alouetteii

Last reported at 2016-May-16 21:31 UTC. Time now 2016-May-24 08:03 UTC.
Position N 37°56' E 023°41'.

Length 54 m; draft 3.5 m.

MMSI: 538070488.

Date/timePositionNaut miles runAvg speedWind from/ knotsBaromVisibWave heightAir tempDewpointWater temp
2016-May-16 21:31N 37°56' E 023°41'0 0.0
2016-May-16 20:06N 37°56' E 023°41'0 0.0
2016-May-16 19:23N 37°56' E 023°41'0 0.0
2016-May-16 18:26N 37°56' E 023°41'0 0.0
2016-May-16 15:27N 37°56' E 023°41'0 0.0
2016-May-16 14:32N 37°56' E 023°41'0 0.0
2016-May-16 13:32N 37°56' E 023°41'0 0.0
2016-May-16 12:32N 37°56' E 023°41'0 0.0
2016-May-16 11:32N 37°56' E 023°41'0 0.0
2016-May-16 10:32N 37°56' E 023°41'0 0.0
2016-May-16 09:32N 37°56' E 023°41'0 0.0
2016-May-16 08:32N 37°56' E 023°41'0 0.0
2016-May-16 07:32N 37°56' E 023°41'0 0.0
2016-May-16 06:32N 37°56' E 023°41'0 0.0
2016-May-16 05:29N 37°56' E 023°41'0 0.0
2016-May-16 03:30N 37°56' E 023°41'0 0.0
2016-May-16 01:32N 37°56' E 023°41'0 0.0
2016-May-16 00:29N 37°56' E 023°41'0 0.0
2016-May-15 23:33N 37°56' E 023°41'0 0.0
2016-May-15 22:31N 37°56' E 023°41'0 0.0
2016-May-15 21:19N 37°56' E 023°41'0 0.0
2016-May-15 20:31N 37°56' E 023°41'0 0.0
2016-May-15 15:13N 37°56' E 023°41'0 0.0
2016-May-15 14:31N 37°56' E 023°41'0 0.0
2016-May-15 13:31N 37°56' E 023°41'0 0.0
2016-May-15 12:31N 37°56' E 023°41'0 0.0
2016-May-15 11:31N 37°56' E 023°41'0 0.0
2016-May-15 10:31N 37°56' E 023°41'0 0.0
2016-May-15 09:31N 37°56' E 023°41'0 0.0
2016-May-15 08:31N 37°56' E 023°41'0 0.0
2016-May-15 07:31N 37°56' E 023°41'2 1.6
2016-May-15 06:33N 37°55' E 023°40'2411.9
2016-May-15 04:33N 37°33' E 023°26'3 3.3
2016-May-15 03:33N 37°30' E 023°27'0 0.0
2016-May-15 02:33N 37°30' E 023°27'0 0.0
2016-May-15 01:27N 37°30' E 023°27'0 0.0
2016-May-15 00:30N 37°30' E 023°27'0 0.0
2016-May-14 23:33N 37°30' E 023°27'0 0.0
2016-May-14 22:33N 37°30' E 023°27'0 0.0
2016-May-14 21:30N 37°30' E 023°27'0 0.0
2016-May-14 20:19N 37°30' E 023°27'0 0.0
2016-May-14 19:31N 37°30' E 023°27'0 0.0
2016-May-14 18:32N 37°30' E 023°27'0 0.0
2016-May-14 17:31N 37°30' E 023°27'0 0.0
2016-May-14 16:32N 37°30' E 023°27'0 0.0
2016-May-14 15:22N 37°30' E 023°27'0 0.0
2016-May-14 14:28N 37°30' E 023°27'0 0.0
2016-May-14 13:22N 37°30' E 023°27'0 0.0
2016-May-14 12:28N 37°30' E 023°27'0 0.0
2016-May-14 11:28N 37°30' E 023°27'0 0.0
2016-May-14 10:21N 37°30' E 023°27'5 6.2
2016-May-14 09:33N 37°35' E 023°28'1212.4
2016-May-14 08:33N 37°46' E 023°35'11 0.3
2016-May-12 23:18N 37°56' E 023°41'0 0.0
2016-May-12 22:30N 37°56' E 023°41'0 0.0
2016-May-12 21:33N 37°56' E 023°41'0 0.0
2016-May-12 20:28N 37°56' E 023°41'0 0.0
2016-May-12 19:33N 37°56' E 023°41'0 0.0
2016-May-12 18:33N 37°56' E 023°41'0 0.0
2016-May-12 15:34N 37°56' E 023°41'0 0.0
2016-May-12 14:31N 37°56' E 023°41'0 0.0
2016-May-12 13:31N 37°56' E 023°41'0 0.0
2016-May-12 12:31N 37°56' E 023°41'0 0.0
2016-May-12 11:31N 37°56' E 023°41'0 0.0
2016-May-12 10:31N 37°56' E 023°41'0 0.0
2016-May-12 09:31N 37°56' E 023°41'0 0.0
2016-May-12 08:31N 37°56' E 023°41'0 0.0
2016-May-12 07:31N 37°56' E 023°41'  
Track history (hours):
 
Tides and Currents Weather Stations Pressure Air Temp Water Temp Dewpoint Dewpoint Depression Visibility Wind Speed Wind Dir Waves Ship Positions

Alouetteii

Last reported at 2016-May-16 21:31 UTC. Time now 2016-May-24 08:03 UTC.
Position N 37°56' E 023°41'.

Length 54 m; draft 3.5 m.

MMSI: 538070488.

Date/timePositionNaut miles runAvg speedWind from/ knotsBaromVisibWave heightAir tempDewpointWater temp
2016-May-16 21:31N 37°56' E 023°41'0 0.0
2016-May-16 20:06N 37°56' E 023°41'0 0.0
2016-May-16 19:23N 37°56' E 023°41'0 0.0
2016-May-16 18:26N 37°56' E 023°41'0 0.0
2016-May-16 15:27N 37°56' E 023°41'0 0.0
2016-May-16 14:32N 37°56' E 023°41'0 0.0
2016-May-16 13:32N 37°56' E 023°41'0 0.0
2016-May-16 12:32N 37°56' E 023°41'0 0.0
2016-May-16 11:32N 37°56' E 023°41'0 0.0
2016-May-16 10:32N 37°56' E 023°41'0 0.0
2016-May-16 09:32N 37°56' E 023°41'0 0.0
2016-May-16 08:32N 37°56' E 023°41'0 0.0
2016-May-16 07:32N 37°56' E 023°41'0 0.0
2016-May-16 06:32N 37°56' E 023°41'0 0.0
2016-May-16 05:29N 37°56' E 023°41'0 0.0
2016-May-16 03:30N 37°56' E 023°41'0 0.0
2016-May-16 01:32N 37°56' E 023°41'0 0.0
2016-May-16 00:29N 37°56' E 023°41'0 0.0
2016-May-15 23:33N 37°56' E 023°41'0 0.0
2016-May-15 22:31N 37°56' E 023°41'0 0.0
2016-May-15 21:19N 37°56' E 023°41'0 0.0
2016-May-15 20:31N 37°56' E 023°41'0 0.0
2016-May-15 15:13N 37°56' E 023°41'0 0.0
2016-May-15 14:31N 37°56' E 023°41'0 0.0
2016-May-15 13:31N 37°56' E 023°41'0 0.0
2016-May-15 12:31N 37°56' E 023°41'0 0.0
2016-May-15 11:31N 37°56' E 023°41'0 0.0
2016-May-15 10:31N 37°56' E 023°41'0 0.0
2016-May-15 09:31N 37°56' E 023°41'0 0.0
2016-May-15 08:31N 37°56' E 023°41'0 0.0
2016-May-15 07:31N 37°56' E 023°41'2 1.6
2016-May-15 06:33N 37°55' E 023°40'2411.9
2016-May-15 04:33N 37°33' E 023°26'3 3.3
2016-May-15 03:33N 37°30' E 023°27'0 0.0
2016-May-15 02:33N 37°30' E 023°27'0 0.0
2016-May-15 01:27N 37°30' E 023°27'0 0.0
2016-May-15 00:30N 37°30' E 023°27'0 0.0
2016-May-14 23:33N 37°30' E 023°27'0 0.0
2016-May-14 22:33N 37°30' E 023°27'0 0.0
2016-May-14 21:30N 37°30' E 023°27'0 0.0
2016-May-14 20:19N 37°30' E 023°27'0 0.0
2016-May-14 19:31N 37°30' E 023°27'0 0.0
2016-May-14 18:32N 37°30' E 023°27'0 0.0
2016-May-14 17:31N 37°30' E 023°27'0 0.0
2016-May-14 16:32N 37°30' E 023°27'0 0.0
2016-May-14 15:22N 37°30' E 023°27'0 0.0
2016-May-14 14:28N 37°30' E 023°27'0 0.0
2016-May-14 13:22N 37°30' E 023°27'0 0.0
2016-May-14 12:28N 37°30' E 023°27'0 0.0
2016-May-14 11:28N 37°30' E 023°27'0 0.0
2016-May-14 10:21N 37°30' E 023°27'5 6.2
2016-May-14 09:33N 37°35' E 023°28'1212.4
2016-May-14 08:33N 37°46' E 023°35'11 0.3
2016-May-12 23:18N 37°56' E 023°41'0 0.0
2016-May-12 22:30N 37°56' E 023°41'0 0.0
2016-May-12 21:33N 37°56' E 023°41'0 0.0
2016-May-12 20:28N 37°56' E 023°41'0 0.0
2016-May-12 19:33N 37°56' E 023°41'0 0.0
2016-May-12 18:33N 37°56' E 023°41'0 0.0
2016-May-12 15:34N 37°56' E 023°41'0 0.0
2016-May-12 14:31N 37°56' E 023°41'0 0.0
2016-May-12 13:31N 37°56' E 023°41'0 0.0
2016-May-12 12:31N 37°56' E 023°41'0 0.0
2016-May-12 11:31N 37°56' E 023°41'0 0.0
2016-May-12 10:31N 37°56' E 023°41'0 0.0
2016-May-12 09:31N 37°56' E 023°41'0 0.0
2016-May-12 08:31N 37°56' E 023°41'0 0.0
2016-May-12 07:31N 37°56' E 023°41'  

Dump ship's entire track history